sensor_id;sensor_type;location;lat;lon;timestamp;temperature;humidity
67557;DHT22;54387;53.526;49.300;2023-01-25T00:00:47;-7.40;57.60
67557;DHT22;54387;53.526;49.300;2023-01-25T00:03:13;-7.40;57.60
67557;DHT22;54387;53.526;49.300;2023-01-25T00:05:39;-7.40;57.60
67557;DHT22;54387;53.526;49.300;2023-01-25T00:08:05;-7.40;57.60
67557;DHT22;54387;53.526;49.300;2023-01-25T00:10:31;-7.40;57.60
67557;DHT22;54387;53.526;49.300;2023-01-25T00:12:57;-7.40;57.60
67557;DHT22;54387;53.526;49.300;2023-01-25T00:15:23;-7.40;57.50
67557;DHT22;54387;53.526;49.300;2023-01-25T00:17:49;-7.40;57.60
67557;DHT22;54387;53.526;49.300;2023-01-25T00:20:15;-7.40;58.50
67557;DHT22;54387;53.526;49.300;2023-01-25T00:22:41;-7.40;57.60
67557;DHT22;54387;53.526;49.300;2023-01-25T00:25:07;-7.40;57.70
67557;DHT22;54387;53.526;49.300;2023-01-25T00:27:33;-7.50;57.50
67557;DHT22;54387;53.526;49.300;2023-01-25T00:30:02;-7.50;58.50
67557;DHT22;54387;53.526;49.300;2023-01-25T00:32:32;-7.50;57.60
67557;DHT22;54387;53.526;49.300;2023-01-25T00:35:01;-7.50;57.70
67557;DHT22;54387;53.526;49.300;2023-01-25T00:37:28;-7.60;57.60
67557;DHT22;54387;53.526;49.300;2023-01-25T00:39:54;-7.60;57.60
67557;DHT22;54387;53.526;49.300;2023-01-25T00:42:21;-7.60;57.60
67557;DHT22;54387;53.526;49.300;2023-01-25T00:44:47;-7.60;58.70
67557;DHT22;54387;53.526;49.300;2023-01-25T00:47:13;-7.60;57.80
67557;DHT22;54387;53.526;49.300;2023-01-25T00:49:42;-7.60;57.90
67557;DHT22;54387;53.526;49.300;2023-01-25T00:52:08;-7.60;57.90
67557;DHT22;54387;53.526;49.300;2023-01-25T00:54:34;-7.60;58.00
67557;DHT22;54387;53.526;49.300;2023-01-25T00:57:00;-7.70;58.10
67557;DHT22;54387;53.526;49.300;2023-01-25T00:59:26;-7.60;58.20
67557;DHT22;54387;53.526;49.300;2023-01-25T01:01:52;-7.70;58.20
67557;DHT22;54387;53.526;49.300;2023-01-25T01:04:19;-7.70;58.20
67557;DHT22;54387;53.526;49.300;2023-01-25T01:06:45;-7.70;58.30
67557;DHT22;54387;53.526;49.300;2023-01-25T01:09:12;-7.70;58.30
67557;DHT22;54387;53.526;49.300;2023-01-25T01:11:38;-7.70;58.30
67557;DHT22;54387;53.526;49.300;2023-01-25T01:14:07;-7.70;58.30
67557;DHT22;54387;53.526;49.300;2023-01-25T01:16:33;-7.60;58.40
67557;DHT22;54387;53.526;49.300;2023-01-25T01:18:59;-7.70;58.40
67557;DHT22;54387;53.526;49.300;2023-01-25T01:21:25;-7.60;58.50
67557;DHT22;54387;53.526;49.300;2023-01-25T01:23:52;-7.60;58.60
67557;DHT22;54387;53.526;49.300;2023-01-25T01:26:19;-7.60;58.60
67557;DHT22;54387;53.526;49.300;2023-01-25T01:28:47;-7.60;58.50
67557;DHT22;54387;53.526;49.300;2023-01-25T01:31:14;-7.60;58.50
67557;DHT22;54387;53.526;49.300;2023-01-25T01:33:40;-7.60;58.50
67557;DHT22;54387;53.526;49.300;2023-01-25T01:36:10;-7.60;58.60
67557;DHT22;54387;53.526;49.300;2023-01-25T01:38:37;-7.70;58.50
67557;DHT22;54387;53.526;49.300;2023-01-25T01:41:03;-7.70;58.60
67557;DHT22;54387;53.526;49.300;2023-01-25T01:43:29;-7.80;58.60
67557;DHT22;54387;53.526;49.300;2023-01-25T01:45:57;-7.80;58.60
67557;DHT22;54387;53.526;49.300;2023-01-25T01:48:34;-7.90;58.60
67557;DHT22;54387;53.526;49.300;2023-01-25T01:51:07;-7.90;58.60
67557;DHT22;54387;53.526;49.300;2023-01-25T01:53:35;-8.00;58.50
67557;DHT22;54387;53.526;49.300;2023-01-25T01:56:02;-8.00;58.50
67557;DHT22;54387;53.526;49.300;2023-01-25T01:58:30;-8.00;58.50
67557;DHT22;54387;53.526;49.300;2023-01-25T02:00:57;-8.00;58.50
67557;DHT22;54387;53.526;49.300;2023-01-25T02:03:23;-8.10;58.40
67557;DHT22;54387;53.526;49.300;2023-01-25T02:06:07;-8.10;58.40
67557;DHT22;54387;53.526;49.300;2023-01-25T02:08:37;-8.20;58.30
67557;DHT22;54387;53.526;49.300;2023-01-25T02:11:05;-8.20;58.30
67557;DHT22;54387;53.526;49.300;2023-01-25T02:13:32;-8.30;58.30
67557;DHT22;54387;53.526;49.300;2023-01-25T02:15:59;-8.30;58.40
67557;DHT22;54387;53.526;49.300;2023-01-25T02:18:28;-8.30;58.40
67557;DHT22;54387;53.526;49.300;2023-01-25T02:20:54;-8.30;58.50
67557;DHT22;54387;53.526;49.300;2023-01-25T02:26:07;-8.40;58.30
67557;DHT22;54387;53.526;49.300;2023-01-25T02:28:56;-8.40;58.30
67557;DHT22;54387;53.526;49.300;2023-01-25T02:31:20;-8.40;58.40
67557;DHT22;54387;53.526;49.300;2023-01-25T02:33:46;-8.50;58.30
67557;DHT22;54387;53.526;49.300;2023-01-25T02:36:16;-8.50;58.40
67557;DHT22;54387;53.526;49.300;2023-01-25T02:38:56;-8.50;58.50
67557;DHT22;54387;53.526;49.300;2023-01-25T02:41:26;-8.60;58.50
67557;DHT22;54387;53.526;49.300;2023-01-25T02:43:52;-8.60;58.80
67557;DHT22;54387;53.526;49.300;2023-01-25T02:46:23;-8.60;58.80
67557;DHT22;54387;53.526;49.300;2023-01-25T02:48:52;-8.60;59.00
67557;DHT22;54387;53.526;49.300;2023-01-25T02:51:20;-8.70;59.10
67557;DHT22;54387;53.526;49.300;2023-01-25T02:53:46;-8.70;59.20
67557;DHT22;54387;53.526;49.300;2023-01-25T02:56:12;-8.70;59.30
67557;DHT22;54387;53.526;49.300;2023-01-25T02:58:38;-8.70;59.40
67557;DHT22;54387;53.526;49.300;2023-01-25T03:01:04;-8.70;59.40
67557;DHT22;54387;53.526;49.300;2023-01-25T03:03:30;-8.80;59.30
67557;DHT22;54387;53.526;49.300;2023-01-25T03:05:56;-8.80;59.30
67557;DHT22;54387;53.526;49.300;2023-01-25T03:08:22;-8.80;59.30
67557;DHT22;54387;53.526;49.300;2023-01-25T03:10:48;-8.80;59.30
67557;DHT22;54387;53.526;49.300;2023-01-25T03:13:14;-8.80;59.30
67557;DHT22;54387;53.526;49.300;2023-01-25T03:15:39;-8.80;59.20
67557;DHT22;54387;53.526;49.300;2023-01-25T03:18:05;-8.80;59.10
67557;DHT22;54387;53.526;49.300;2023-01-25T03:20:32;-8.90;59.10
67557;DHT22;54387;53.526;49.300;2023-01-25T03:22:58;-8.90;59.10
67557;DHT22;54387;53.526;49.300;2023-01-25T03:25:24;-9.00;59.20
67557;DHT22;54387;53.526;49.300;2023-01-25T03:27:50;-9.00;59.30
67557;DHT22;54387;53.526;49.300;2023-01-25T03:30:16;-9.00;59.30
67557;DHT22;54387;53.526;49.300;2023-01-25T03:32:42;-9.00;59.30
67557;DHT22;54387;53.526;49.300;2023-01-25T03:35:08;-9.00;59.30
67557;DHT22;54387;53.526;49.300;2023-01-25T03:37:36;-9.00;59.30
67557;DHT22;54387;53.526;49.300;2023-01-25T03:40:02;-9.00;59.30
67557;DHT22;54387;53.526;49.300;2023-01-25T03:42:28;-9.00;59.10
67557;DHT22;54387;53.526;49.300;2023-01-25T03:44:54;-9.00;59.10
67557;DHT22;54387;53.526;49.300;2023-01-25T03:47:20;-9.00;59.10
67557;DHT22;54387;53.526;49.300;2023-01-25T03:49:46;-9.00;59.40
67557;DHT22;54387;53.526;49.300;2023-01-25T03:52:12;-9.00;59.40
67557;DHT22;54387;53.526;49.300;2023-01-25T03:54:37;-9.00;59.50
67557;DHT22;54387;53.526;49.300;2023-01-25T03:57:03;-9.00;59.80
67557;DHT22;54387;53.526;49.300;2023-01-25T03:59:29;-9.00;59.90
67557;DHT22;54387;53.526;49.300;2023-01-25T04:01:55;-9.00;59.90
67557;DHT22;54387;53.526;49.300;2023-01-25T04:04:21;-8.90;59.90
67557;DHT22;54387;53.526;49.300;2023-01-25T04:06:47;-8.90;59.90
67557;DHT22;54387;53.526;49.300;2023-01-25T04:09:13;-8.90;59.90
67557;DHT22;54387;53.526;49.300;2023-01-25T04:11:39;-8.90;59.90
67557;DHT22;54387;53.526;49.300;2023-01-25T04:14:05;-8.90;59.90
67557;DHT22;54387;53.526;49.300;2023-01-25T04:18:57;-8.80;59.90
67557;DHT22;54387;53.526;49.300;2023-01-25T04:21:25;-8.90;59.90
67557;DHT22;54387;53.526;49.300;2023-01-25T04:23:51;-8.90;60.00
67557;DHT22;54387;53.526;49.300;2023-01-25T04:26:17;-8.90;60.20
67557;DHT22;54387;53.526;49.300;2023-01-25T04:28:43;-8.90;60.20
67557;DHT22;54387;53.526;49.300;2023-01-25T04:31:08;-8.90;60.30
67557;DHT22;54387;53.526;49.300;2023-01-25T04:33:35;-8.90;60.30
67557;DHT22;54387;53.526;49.300;2023-01-25T04:36:01;-8.90;60.80
67557;DHT22;54387;53.526;49.300;2023-01-25T04:38:28;-8.90;60.30
67557;DHT22;54387;53.526;49.300;2023-01-25T04:40:54;-8.90;60.30
67557;DHT22;54387;53.526;49.300;2023-01-25T04:43:20;-8.90;60.30
67557;DHT22;54387;53.526;49.300;2023-01-25T04:45:46;-9.00;60.30
67557;DHT22;54387;53.526;49.300;2023-01-25T04:48:12;-9.00;60.40
67557;DHT22;54387;53.526;49.300;2023-01-25T04:50:39;-9.00;60.30
67557;DHT22;54387;53.526;49.300;2023-01-25T04:53:05;-9.00;60.30
67557;DHT22;54387;53.526;49.300;2023-01-25T04:55:32;-9.00;60.40
67557;DHT22;54387;53.526;49.300;2023-01-25T04:57:59;-9.00;60.40
67557;DHT22;54387;53.526;49.300;2023-01-25T05:00:25;-9.00;60.40
67557;DHT22;54387;53.526;49.300;2023-01-25T05:02:51;-8.90;60.50
67557;DHT22;54387;53.526;49.300;2023-01-25T05:05:17;-8.90;60.40
67557;DHT22;54387;53.526;49.300;2023-01-25T05:07:43;-8.90;60.40
67557;DHT22;54387;53.526;49.300;2023-01-25T05:10:09;-8.80;60.40
67557;DHT22;54387;53.526;49.300;2023-01-25T05:12:35;-8.80;60.40
67557;DHT22;54387;53.526;49.300;2023-01-25T05:15:01;-8.80;61.00
67557;DHT22;54387;53.526;49.300;2023-01-25T05:17:27;-8.80;60.50
67557;DHT22;54387;53.526;49.300;2023-01-25T05:19:53;-8.70;60.50
67557;DHT22;54387;53.526;49.300;2023-01-25T05:22:19;-8.70;60.50
67557;DHT22;54387;53.526;49.300;2023-01-25T05:24:46;-8.60;60.50
67557;DHT22;54387;53.526;49.300;2023-01-25T05:27:13;-8.60;60.50
67557;DHT22;54387;53.526;49.300;2023-01-25T05:29:40;-8.60;60.50
67557;DHT22;54387;53.526;49.300;2023-01-25T05:32:08;-8.50;60.50
67557;DHT22;54387;53.526;49.300;2023-01-25T05:34:35;-8.50;60.50
67557;DHT22;54387;53.526;49.300;2023-01-25T05:37:01;-8.50;60.50
67557;DHT22;54387;53.526;49.300;2023-01-25T05:39:28;-8.50;60.50
67557;DHT22;54387;53.526;49.300;2023-01-25T05:41:54;-8.40;60.40
67557;DHT22;54387;53.526;49.300;2023-01-25T05:44:20;-8.50;60.30
67557;DHT22;54387;53.526;49.300;2023-01-25T05:46:47;-8.40;60.30
67557;DHT22;54387;53.526;49.300;2023-01-25T05:49:13;-8.40;60.40
67557;DHT22;54387;53.526;49.300;2023-01-25T05:51:40;-8.40;60.40
67557;DHT22;54387;53.526;49.300;2023-01-25T05:54:06;-8.30;60.50
67557;DHT22;54387;53.526;49.300;2023-01-25T05:56:32;-8.30;60.40
67557;DHT22;54387;53.526;49.300;2023-01-25T05:58:59;-8.20;60.40
67557;DHT22;54387;53.526;49.300;2023-01-25T06:01:26;-8.10;60.30
67557;DHT22;54387;53.526;49.300;2023-01-25T06:03:52;-8.10;60.20
67557;DHT22;54387;53.526;49.300;2023-01-25T06:06:19;-8.00;60.20
67557;DHT22;54387;53.526;49.300;2023-01-25T06:08:47;-7.90;60.20
67557;DHT22;54387;53.526;49.300;2023-01-25T06:11:17;-7.90;60.10
67557;DHT22;54387;53.526;49.300;2023-01-25T06:13:44;-7.80;60.20
67557;DHT22;54387;53.526;49.300;2023-01-25T06:16:10;-7.80;60.10
67557;DHT22;54387;53.526;49.300;2023-01-25T06:18:37;-7.70;60.20
67557;DHT22;54387;53.526;49.300;2023-01-25T06:21:03;-7.60;60.10
67557;DHT22;54387;53.526;49.300;2023-01-25T06:23:30;-7.50;60.00
67557;DHT22;54387;53.526;49.300;2023-01-25T06:25:56;-7.40;59.70
67557;DHT22;54387;53.526;49.300;2023-01-25T06:28:23;-7.30;59.80
67557;DHT22;54387;53.526;49.300;2023-01-25T06:30:50;-7.30;59.70
67557;DHT22;54387;53.526;49.300;2023-01-25T06:33:16;-7.20;59.70
67557;DHT22;54387;53.526;49.300;2023-01-25T06:35:42;-7.10;59.70
67557;DHT22;54387;53.526;49.300;2023-01-25T06:38:09;-7.00;59.50
67557;DHT22;54387;53.526;49.300;2023-01-25T06:40:35;-7.00;59.30
67557;DHT22;54387;53.526;49.300;2023-01-25T06:43:05;-6.90;59.40
67557;DHT22;54387;53.526;49.300;2023-01-25T06:45:31;-6.80;59.40
67557;DHT22;54387;53.526;49.300;2023-01-25T06:47:57;-6.70;59.50
67557;DHT22;54387;53.526;49.300;2023-01-25T06:50:24;-6.60;59.40
67557;DHT22;54387;53.526;49.300;2023-01-25T06:52:53;-6.50;58.80
67557;DHT22;54387;53.526;49.300;2023-01-25T06:55:19;-6.40;58.80
67557;DHT22;54387;53.526;49.300;2023-01-25T06:57:45;-6.30;58.60
67557;DHT22;54387;53.526;49.300;2023-01-25T07:00:11;-6.20;58.40
67557;DHT22;54387;53.526;49.300;2023-01-25T07:02:38;-6.20;58.30
67557;DHT22;54387;53.526;49.300;2023-01-25T07:05:04;-6.10;58.40
67557;DHT22;54387;53.526;49.300;2023-01-25T07:07:31;-6.00;58.20
67557;DHT22;54387;53.526;49.300;2023-01-25T07:09:57;-5.90;58.10
67557;DHT22;54387;53.526;49.300;2023-01-25T07:12:25;-5.80;58.20
67557;DHT22;54387;53.526;49.300;2023-01-25T07:14:51;-5.70;58.20
67557;DHT22;54387;53.526;49.300;2023-01-25T07:17:17;-5.70;57.70
67557;DHT22;54387;53.526;49.300;2023-01-25T07:19:43;-5.60;57.20
67557;DHT22;54387;53.526;49.300;2023-01-25T07:22:09;-5.60;56.90
67557;DHT22;54387;53.526;49.300;2023-01-25T07:24:36;-5.60;56.70
67557;DHT22;54387;53.526;49.300;2023-01-25T07:27:02;-5.60;56.60
67557;DHT22;54387;53.526;49.300;2023-01-25T07:29:28;-5.60;56.40
67557;DHT22;54387;53.526;49.300;2023-01-25T07:31:57;-5.50;56.70
67557;DHT22;54387;53.526;49.300;2023-01-25T07:34:23;-5.50;57.40
67557;DHT22;54387;53.526;49.300;2023-01-25T07:36:49;-5.50;58.00
67557;DHT22;54387;53.526;49.300;2023-01-25T07:39:15;-5.40;58.50
67557;DHT22;54387;53.526;49.300;2023-01-25T07:41:42;-5.40;59.00
67557;DHT22;54387;53.526;49.300;2023-01-25T07:44:08;-5.40;59.50
67557;DHT22;54387;53.526;49.300;2023-01-25T07:46:34;-5.30;60.00
67557;DHT22;54387;53.526;49.300;2023-01-25T07:49:00;-5.30;60.30
67557;DHT22;54387;53.526;49.300;2023-01-25T07:51:27;-5.30;60.60
67557;DHT22;54387;53.526;49.300;2023-01-25T07:54:02;-5.30;60.80
67557;DHT22;54387;53.526;49.300;2023-01-25T07:56:32;-5.20;61.10
67557;DHT22;54387;53.526;49.300;2023-01-25T07:58:59;-5.10;61.30
67557;DHT22;54387;53.526;49.300;2023-01-25T08:01:27;-5.10;61.20
67557;DHT22;54387;53.526;49.300;2023-01-25T08:03:56;-5.00;61.30
67557;DHT22;54387;53.526;49.300;2023-01-25T08:06:23;-5.00;61.40
67557;DHT22;54387;53.526;49.300;2023-01-25T08:08:54;-5.00;61.80
67557;DHT22;54387;53.526;49.300;2023-01-25T08:11:21;-5.00;62.40
67557;DHT22;54387;53.526;49.300;2023-01-25T08:13:50;-4.80;62.10
67557;DHT22;54387;53.526;49.300;2023-01-25T08:16:17;-4.60;62.00
67557;DHT22;54387;53.526;49.300;2023-01-25T08:18:47;-4.30;61.90
67557;DHT22;54387;53.526;49.300;2023-01-25T08:21:17;-4.00;61.70
67557;DHT22;54387;53.526;49.300;2023-01-25T08:23:44;-3.70;61.60
67557;DHT22;54387;53.526;49.300;2023-01-25T08:26:11;-3.50;61.20
67557;DHT22;54387;53.526;49.300;2023-01-25T08:28:37;-3.30;60.90
67557;DHT22;54387;53.526;49.300;2023-01-25T08:31:07;-3.10;60.90
67557;DHT22;54387;53.526;49.300;2023-01-25T08:33:34;-3.00;60.70
67557;DHT22;54387;53.526;49.300;2023-01-25T08:36:00;-2.80;60.60
67557;DHT22;54387;53.526;49.300;2023-01-25T08:38:26;-2.60;60.70
67557;DHT22;54387;53.526;49.300;2023-01-25T08:40:52;-2.50;60.20
67557;DHT22;54387;53.526;49.300;2023-01-25T08:43:18;-2.50;60.00
67557;DHT22;54387;53.526;49.300;2023-01-25T08:45:45;-2.60;59.70
67557;DHT22;54387;53.526;49.300;2023-01-25T08:48:10;-2.80;58.50
67557;DHT22;54387;53.526;49.300;2023-01-25T08:50:47;-3.10;58.30
67557;DHT22;54387;53.526;49.300;2023-01-25T08:53:15;-3.30;58.30
67557;DHT22;54387;53.526;49.300;2023-01-25T08:55:41;-3.40;58.70
67557;DHT22;54387;53.526;49.300;2023-01-25T08:58:11;-3.50;58.40
67557;DHT22;54387;53.526;49.300;2023-01-25T09:00:38;-3.60;58.70
67557;DHT22;54387;53.526;49.300;2023-01-25T09:03:05;-3.70;58.30
67557;DHT22;54387;53.526;49.300;2023-01-25T09:05:35;-3.70;58.20
67557;DHT22;54387;53.526;49.300;2023-01-25T09:08:01;-3.60;58.70
67557;DHT22;54387;53.526;49.300;2023-01-25T09:10:27;-3.40;58.50
67557;DHT22;54387;53.526;49.300;2023-01-25T09:12:54;-3.20;58.00
67557;DHT22;54387;53.526;49.300;2023-01-25T09:15:20;-3.00;57.10
67557;DHT22;54387;53.526;49.300;2023-01-25T09:17:50;-2.90;56.90
67557;DHT22;54387;53.526;49.300;2023-01-25T09:20:17;-2.70;57.10
67557;DHT22;54387;53.526;49.300;2023-01-25T09:22:43;-2.40;56.80
67557;DHT22;54387;53.526;49.300;2023-01-25T09:25:09;-2.20;55.90
67557;DHT22;54387;53.526;49.300;2023-01-25T09:27:35;-2.10;55.60
67557;DHT22;54387;53.526;49.300;2023-01-25T09:30:01;-2.00;55.60
67557;DHT22;54387;53.526;49.300;2023-01-25T09:32:27;-1.90;54.80
67557;DHT22;54387;53.526;49.300;2023-01-25T09:34:56;-1.90;54.80
67557;DHT22;54387;53.526;49.300;2023-01-25T09:37:22;-1.90;54.90
67557;DHT22;54387;53.526;49.300;2023-01-25T09:39:48;-1.90;54.80
67557;DHT22;54387;53.526;49.300;2023-01-25T09:44:45;-2.00;53.40
67557;DHT22;54387;53.526;49.300;2023-01-25T09:47:25;-2.10;53.10
67557;DHT22;54387;53.526;49.300;2023-01-25T09:55:15;-2.00;54.30
67557;DHT22;54387;53.526;49.300;2023-01-25T09:57:45;-2.00;54.10
67557;DHT22;54387;53.526;49.300;2023-01-25T10:00:23;-2.10;54.20
67557;DHT22;54387;53.526;49.300;2023-01-25T10:02:57;-2.10;54.80
67557;DHT22;54387;53.526;49.300;2023-01-25T10:05:31;-2.00;55.30
67557;DHT22;54387;53.526;49.300;2023-01-25T10:10:34;-2.10;56.30
67557;DHT22;54387;53.526;49.300;2023-01-25T10:13:01;-2.10;56.80
67557;DHT22;54387;53.526;49.300;2023-01-25T10:15:29;-2.30;57.20
67557;DHT22;54387;53.526;49.300;2023-01-25T10:18:02;-2.30;57.60
67557;DHT22;54387;53.526;49.300;2023-01-25T10:20:33;-2.20;58.00
67557;DHT22;54387;53.526;49.300;2023-01-25T10:33:30;-1.80;58.90
67557;DHT22;54387;53.526;49.300;2023-01-25T10:35:57;-1.60;58.80
67557;DHT22;54387;53.526;49.300;2023-01-25T10:38:37;-1.40;58.60
67557;DHT22;54387;53.526;49.300;2023-01-25T10:41:18;-1.30;58.60
67557;DHT22;54387;53.526;49.300;2023-01-25T10:43:45;-1.10;58.80
67557;DHT22;54387;53.526;49.300;2023-01-25T10:46:46;-0.90;58.40
67557;DHT22;54387;53.526;49.300;2023-01-25T10:51:48;-0.90;57.80
67557;DHT22;54387;53.526;49.300;2023-01-25T10:54:14;-0.90;57.90
67557;DHT22;54387;53.526;49.300;2023-01-25T10:56:41;-0.90;58.00
67557;DHT22;54387;53.526;49.300;2023-01-25T10:59:15;-1.00;58.30
67557;DHT22;54387;53.526;49.300;2023-01-25T11:01:42;-1.00;58.60
67557;DHT22;54387;53.526;49.300;2023-01-25T11:04:23;-1.00;58.90
67557;DHT22;54387;53.526;49.300;2023-01-25T11:06:49;-1.00;59.00
67557;DHT22;54387;53.526;49.300;2023-01-25T11:11:58;-1.00;59.20
67557;DHT22;54387;53.526;49.300;2023-01-25T11:14:26;-1.00;59.10
67557;DHT22;54387;53.526;49.300;2023-01-25T11:16:53;-1.10;59.30
67557;DHT22;54387;53.526;49.300;2023-01-25T11:19:33;-1.20;59.60
67557;DHT22;54387;53.526;49.300;2023-01-25T11:22:01;-1.20;59.70
67557;DHT22;54387;53.526;49.300;2023-01-25T11:24:28;-1.30;60.00
67557;DHT22;54387;53.526;49.300;2023-01-25T11:32:31;-1.50;60.40
67557;DHT22;54387;53.526;49.300;2023-01-25T11:34:57;-1.50;60.60
67557;DHT22;54387;53.526;49.300;2023-01-25T11:50:58;-1.10;60.50
67557;DHT22;54387;53.526;49.300;2023-01-25T12:29:43;-1.30;61.60
67557;DHT22;54387;53.526;49.300;2023-01-25T12:32:15;-1.40;61.60
67557;DHT22;54387;53.526;49.300;2023-01-25T12:34:44;-1.40;61.50
67557;DHT22;54387;53.526;49.300;2023-01-25T12:37:23;-1.30;61.60
67557;DHT22;54387;53.526;49.300;2023-01-25T12:40:12;-1.30;61.70
67557;DHT22;54387;53.526;49.300;2023-01-25T12:42:50;-1.30;61.60
67557;DHT22;54387;53.526;49.300;2023-01-25T12:45:21;-1.30;61.60
67557;DHT22;54387;53.526;49.300;2023-01-25T12:48:13;-1.20;61.50
67557;DHT22;54387;53.526;49.300;2023-01-25T12:50:40;-1.30;61.40
67557;DHT22;54387;53.526;49.300;2023-01-25T12:55:58;-1.50;61.40
67557;DHT22;54387;53.526;49.300;2023-01-25T12:58:59;-1.70;61.50
67557;DHT22;54387;53.526;49.300;2023-01-25T13:04:02;-1.90;61.80
67557;DHT22;54387;53.526;49.300;2023-01-25T13:11:41;-2.20;62.00
67557;DHT22;54387;53.526;49.300;2023-01-25T13:21:52;-2.30;61.80
67557;DHT22;54387;53.526;49.300;2023-01-25T13:24:22;-2.30;62.20
67557;DHT22;54387;53.526;49.300;2023-01-25T13:29:51;-2.40;61.60
67557;DHT22;54387;53.526;49.300;2023-01-25T13:32:58;-2.40;61.50
67557;DHT22;54387;53.526;49.300;2023-01-25T13:34:58;-2.50;61.30
67557;DHT22;54387;53.526;49.300;2023-01-25T13:37:25;-2.50;61.40
67557;DHT22;54387;53.526;49.300;2023-01-25T13:42:22;-2.40;61.20
67557;DHT22;54387;53.526;49.300;2023-01-25T13:44:53;-2.40;61.10
67557;DHT22;54387;53.526;49.300;2023-01-25T13:47:21;-2.50;61.00
67557;DHT22;54387;53.526;49.300;2023-01-25T13:52:13;-2.50;61.00
67557;DHT22;54387;53.526;49.300;2023-01-25T13:54:44;-2.50;60.90
67557;DHT22;54387;53.526;49.300;2023-01-25T13:57:11;-2.50;60.80
67557;DHT22;54387;53.526;49.300;2023-01-25T13:59:37;-2.60;60.70
67557;DHT22;54387;53.526;49.300;2023-01-25T14:02:19;-2.60;60.70
67557;DHT22;54387;53.526;49.300;2023-01-25T14:04:47;-2.60;60.60
67557;DHT22;54387;53.526;49.300;2023-01-25T14:07:17;-2.60;60.70
67557;DHT22;54387;53.526;49.300;2023-01-25T14:09:43;-2.60;61.10
67557;DHT22;54387;53.526;49.300;2023-01-25T14:12:10;-2.60;60.20
67557;DHT22;54387;53.526;49.300;2023-01-25T14:14:36;-2.60;60.00
67557;DHT22;54387;53.526;49.300;2023-01-25T14:19:29;-2.70;58.90
67557;DHT22;54387;53.526;49.300;2023-01-25T14:24:40;-3.00;58.00
67557;DHT22;54387;53.526;49.300;2023-01-25T14:27:09;-3.00;58.30
67557;DHT22;54387;53.526;49.300;2023-01-25T14:29:36;-3.10;57.30
67557;DHT22;54387;53.526;49.300;2023-01-25T14:32:05;-3.20;57.00
67557;DHT22;54387;53.526;49.300;2023-01-25T14:34:31;-3.30;57.00
67557;DHT22;54387;53.526;49.300;2023-01-25T14:37:04;-3.40;56.80
67557;DHT22;54387;53.526;49.300;2023-01-25T14:39:32;-3.40;56.90
67557;DHT22;54387;53.526;49.300;2023-01-25T14:41:58;-3.50;57.10
67557;DHT22;54387;53.526;49.300;2023-01-25T14:44:26;-3.50;57.40
67557;DHT22;54387;53.526;49.300;2023-01-25T14:47:35;-3.40;57.90
67557;DHT22;54387;53.526;49.300;2023-01-25T14:49:42;-3.40;58.00
67557;DHT22;54387;53.526;49.300;2023-01-25T14:52:09;-3.30;58.20
67557;DHT22;54387;53.526;49.300;2023-01-25T14:54:43;-3.20;58.20
67557;DHT22;54387;53.526;49.300;2023-01-25T14:57:43;-3.20;58.00
67557;DHT22;54387;53.526;49.300;2023-01-25T15:00:04;-3.20;57.60
67557;DHT22;54387;53.526;49.300;2023-01-25T15:12:57;-3.60;57.20
67557;DHT22;54387;53.526;49.300;2023-01-25T15:15:26;-3.80;57.00
67557;DHT22;54387;53.526;49.300;2023-01-25T15:17:53;-4.00;56.20
67557;DHT22;54387;53.526;49.300;2023-01-25T15:20:24;-4.20;56.00
67557;DHT22;54387;53.526;49.300;2023-01-25T15:22:50;-4.40;56.00
67557;DHT22;54387;53.526;49.300;2023-01-25T15:25:16;-4.70;55.90
67557;DHT22;54387;53.526;49.300;2023-01-25T15:27:42;-4.80;56.00
67557;DHT22;54387;53.526;49.300;2023-01-25T15:30:15;-5.00;55.90
67557;DHT22;54387;53.526;49.300;2023-01-25T15:32:42;-5.10;56.00
67557;DHT22;54387;53.526;49.300;2023-01-25T15:35:12;-5.20;56.10
67557;DHT22;54387;53.526;49.300;2023-01-25T15:37:39;-5.40;56.20
67557;DHT22;54387;53.526;49.300;2023-01-25T15:40:06;-5.40;56.30
67557;DHT22;54387;53.526;49.300;2023-01-25T15:42:32;-5.50;56.30
67557;DHT22;54387;53.526;49.300;2023-01-25T15:44:58;-5.60;56.30
67557;DHT22;54387;53.526;49.300;2023-01-25T15:47:24;-5.70;56.40
67557;DHT22;54387;53.526;49.300;2023-01-25T15:49:50;-5.70;56.50
67557;DHT22;54387;53.526;49.300;2023-01-25T15:52:18;-5.70;56.50
67557;DHT22;54387;53.526;49.300;2023-01-25T15:54:45;-5.70;56.50
67557;DHT22;54387;53.526;49.300;2023-01-25T15:57:30;-5.80;56.40
67557;DHT22;54387;53.526;49.300;2023-01-25T15:59:56;-5.80;56.50
67557;DHT22;54387;53.526;49.300;2023-01-25T16:02:22;-5.90;56.40
67557;DHT22;54387;53.526;49.300;2023-01-25T16:04:48;-5.90;56.50
67557;DHT22;54387;53.526;49.300;2023-01-25T16:07:20;-6.00;56.50
67557;DHT22;54387;53.526;49.300;2023-01-25T16:09:47;-6.00;56.60
67557;DHT22;54387;53.526;49.300;2023-01-25T16:12:14;-6.10;56.70
67557;DHT22;54387;53.526;49.300;2023-01-25T16:14:40;-6.10;56.70
67557;DHT22;54387;53.526;49.300;2023-01-25T16:17:10;-6.10;56.80
67557;DHT22;54387;53.526;49.300;2023-01-25T16:19:37;-6.10;56.90
67557;DHT22;54387;53.526;49.300;2023-01-25T16:22:03;-6.10;56.80
67557;DHT22;54387;53.526;49.300;2023-01-25T16:24:29;-6.10;56.80
67557;DHT22;54387;53.526;49.300;2023-01-25T16:26:56;-6.10;56.90
67557;DHT22;54387;53.526;49.300;2023-01-25T16:29:22;-6.20;56.90
67557;DHT22;54387;53.526;49.300;2023-01-25T16:31:49;-6.20;56.90
67557;DHT22;54387;53.526;49.300;2023-01-25T16:34:15;-6.20;57.00
67557;DHT22;54387;53.526;49.300;2023-01-25T16:36:41;-6.20;57.00
67557;DHT22;54387;53.526;49.300;2023-01-25T16:39:14;-6.20;57.10
67557;DHT22;54387;53.526;49.300;2023-01-25T16:41:41;-6.20;57.10
67557;DHT22;54387;53.526;49.300;2023-01-25T16:44:07;-6.20;57.10
67557;DHT22;54387;53.526;49.300;2023-01-25T16:46:33;-6.30;57.00
67557;DHT22;54387;53.526;49.300;2023-01-25T16:49:00;-6.30;57.00
67557;DHT22;54387;53.526;49.300;2023-01-25T16:51:29;-6.30;57.10
67557;DHT22;54387;53.526;49.300;2023-01-25T16:53:57;-6.30;57.10
67557;DHT22;54387;53.526;49.300;2023-01-25T16:56:27;-6.30;57.00
67557;DHT22;54387;53.526;49.300;2023-01-25T16:58:54;-6.30;57.10
67557;DHT22;54387;53.526;49.300;2023-01-25T17:01:21;-6.30;57.10
67557;DHT22;54387;53.526;49.300;2023-01-25T17:03:48;-6.30;57.00
67557;DHT22;54387;53.526;49.300;2023-01-25T17:06:24;-6.30;57.10
67557;DHT22;54387;53.526;49.300;2023-01-25T17:08:51;-6.40;57.00
67557;DHT22;54387;53.526;49.300;2023-01-25T17:11:17;-6.40;57.00
67557;DHT22;54387;53.526;49.300;2023-01-25T17:13:50;-6.40;57.00
67557;DHT22;54387;53.526;49.300;2023-01-25T17:16:17;-6.40;57.10
67557;DHT22;54387;53.526;49.300;2023-01-25T17:18:43;-6.40;57.00
67557;DHT22;54387;53.526;49.300;2023-01-25T17:21:10;-6.40;57.10
67557;DHT22;54387;53.526;49.300;2023-01-25T17:23:37;-6.40;57.10
67557;DHT22;54387;53.526;49.300;2023-01-25T17:26:04;-6.50;57.10
67557;DHT22;54387;53.526;49.300;2023-01-25T17:28:30;-6.50;57.10